sensor_id;sensor_type;location;lat;lon;timestamp;P1;durP1;ratioP1;P2;durP2;ratioP2
26157;SDS011;67284;44.782;10.282;2023-12-22T00:04:28;29.00;;;17.63;;
26157;SDS011;67284;44.782;10.282;2023-12-22T00:09:20;26.33;;;18.10;;
26157;SDS011;67284;44.782;10.282;2023-12-22T00:14:12;30.58;;;18.17;;
26157;SDS011;67284;44.782;10.282;2023-12-22T00:19:03;25.88;;;16.92;;
26157;SDS011;67284;44.782;10.282;2023-12-22T00:23:56;30.98;;;16.50;;
26157;SDS011;67284;44.782;10.282;2023-12-22T00:28:48;24.33;;;15.57;;
26157;SDS011;67284;44.782;10.282;2023-12-22T00:33:40;17.52;;;10.02;;
26157;SDS011;67284;44.782;10.282;2023-12-22T00:38:32;10.95;;;4.85;;
26157;SDS011;67284;44.782;10.282;2023-12-22T00:43:24;10.82;;;2.67;;
26157;SDS011;67284;44.782;10.282;2023-12-22T00:48:16;8.15;;;2.40;;
26157;SDS011;67284;44.782;10.282;2023-12-22T00:53:08;8.73;;;2.20;;
26157;SDS011;67284;44.782;10.282;2023-12-22T00:58:00;4.25;;;1.80;;
26157;SDS011;67284;44.782;10.282;2023-12-22T01:02:51;5.70;;;1.70;;
26157;SDS011;67284;44.782;10.282;2023-12-22T01:07:43;4.40;;;1.80;;
26157;SDS011;67284;44.782;10.282;2023-12-22T01:12:35;6.28;;;1.70;;
26157;SDS011;67284;44.782;10.282;2023-12-22T01:17:27;3.83;;;1.63;;
26157;SDS011;67284;44.782;10.282;2023-12-22T01:22:19;5.13;;;1.50;;
26157;SDS011;67284;44.782;10.282;2023-12-22T01:27:11;3.47;;;1.42;;
26157;SDS011;67284;44.782;10.282;2023-12-22T01:32:03;3.10;;;1.58;;
26157;SDS011;67284;44.782;10.282;2023-12-22T01:36:55;1.73;;;1.30;;
26157;SDS011;67284;44.782;10.282;2023-12-22T01:41:47;3.30;;;1.33;;
26157;SDS011;67284;44.782;10.282;2023-12-22T01:46:39;2.10;;;1.13;;
26157;SDS011;67284;44.782;10.282;2023-12-22T01:51:31;7.95;;;1.70;;
26157;SDS011;67284;44.782;10.282;2023-12-22T01:56:24;4.40;;;1.15;;
26157;SDS011;67284;44.782;10.282;2023-12-22T02:01:16;4.90;;;1.20;;
26157;SDS011;67284;44.782;10.282;2023-12-22T02:06:08;5.07;;;1.50;;
26157;SDS011;67284;44.782;10.282;2023-12-22T02:11:02;5.15;;;1.58;;
26157;SDS011;67284;44.782;10.282;2023-12-22T02:15:56;4.22;;;0.88;;
26157;SDS011;67284;44.782;10.282;2023-12-22T02:20:55;4.03;;;1.38;;
26157;SDS011;67284;44.782;10.282;2023-12-22T02:25:48;3.05;;;1.17;;
26157;SDS011;67284;44.782;10.282;2023-12-22T02:30:57;6.63;;;1.63;;
26157;SDS011;67284;44.782;10.282;2023-12-22T02:35:55;3.97;;;1.80;;
26157;SDS011;67284;44.782;10.282;2023-12-22T02:40:54;3.72;;;1.25;;
26157;SDS011;67284;44.782;10.282;2023-12-22T02:45:51;1.08;;;0.85;;
26157;SDS011;67284;44.782;10.282;2023-12-22T02:50:43;4.22;;;1.38;;
26157;SDS011;67284;44.782;10.282;2023-12-22T02:55:35;3.47;;;0.80;;
26157;SDS011;67284;44.782;10.282;2023-12-22T03:00:27;3.70;;;0.90;;
26157;SDS011;67284;44.782;10.282;2023-12-22T03:05:19;1.15;;;1.00;;
26157;SDS011;67284;44.782;10.282;2023-12-22T03:10:11;1.55;;;1.00;;
26157;SDS011;67284;44.782;10.282;2023-12-22T03:15:03;8.50;;;1.50;;
26157;SDS011;67284;44.782;10.282;2023-12-22T03:19:56;1.23;;;0.98;;
26157;SDS011;67284;44.782;10.282;2023-12-22T03:24:48;1.30;;;1.20;;
26157;SDS011;67284;44.782;10.282;2023-12-22T03:29:39;2.75;;;1.05;;
26157;SDS011;67284;44.782;10.282;2023-12-22T03:34:31;2.33;;;0.98;;
26157;SDS011;67284;44.782;10.282;2023-12-22T03:39:23;1.73;;;1.10;;
26157;SDS011;67284;44.782;10.282;2023-12-22T03:44:15;3.75;;;1.85;;
26157;SDS011;67284;44.782;10.282;2023-12-22T03:49:07;1.35;;;1.00;;
26157;SDS011;67284;44.782;10.282;2023-12-22T03:53:59;1.52;;;1.10;;
26157;SDS011;67284;44.782;10.282;2023-12-22T03:58:51;1.20;;;1.08;;
26157;SDS011;67284;44.782;10.282;2023-12-22T04:03:43;2.72;;;1.17;;
26157;SDS011;67284;44.782;10.282;2023-12-22T04:08:35;1.25;;;1.10;;
26157;SDS011;67284;44.782;10.282;2023-12-22T04:13:27;3.40;;;1.20;;
26157;SDS011;67284;44.782;10.282;2023-12-22T04:18:19;1.48;;;1.00;;
26157;SDS011;67284;44.782;10.282;2023-12-22T04:23:11;3.78;;;1.40;;
26157;SDS011;67284;44.782;10.282;2023-12-22T04:28:02;1.20;;;1.10;;
26157;SDS011;67284;44.782;10.282;2023-12-22T04:32:54;3.83;;;1.35;;
26157;SDS011;67284;44.782;10.282;2023-12-22T04:37:47;0.93;;;0.90;;
26157;SDS011;67284;44.782;10.282;2023-12-22T04:42:40;1.30;;;0.95;;
26157;SDS011;67284;44.782;10.282;2023-12-22T04:47:32;1.83;;;1.50;;
26157;SDS011;67284;44.782;10.282;2023-12-22T04:52:24;3.10;;;1.30;;
26157;SDS011;67284;44.782;10.282;2023-12-22T04:57:15;2.20;;;1.00;;
26157;SDS011;67284;44.782;10.282;2023-12-22T05:02:09;1.27;;;1.05;;
26157;SDS011;67284;44.782;10.282;2023-12-22T05:07:01;1.42;;;1.05;;
26157;SDS011;67284;44.782;10.282;2023-12-22T05:11:58;2.25;;;2.05;;
26157;SDS011;67284;44.782;10.282;2023-12-22T05:16:50;1.10;;;0.80;;
26157;SDS011;67284;44.782;10.282;2023-12-22T05:21:46;1.88;;;1.10;;
26157;SDS011;67284;44.782;10.282;2023-12-22T05:26:40;3.92;;;1.13;;
26157;SDS011;67284;44.782;10.282;2023-12-22T05:31:32;1.33;;;1.00;;
26157;SDS011;67284;44.782;10.282;2023-12-22T05:36:24;3.47;;;1.10;;
26157;SDS011;67284;44.782;10.282;2023-12-22T05:41:17;3.28;;;1.00;;
26157;SDS011;67284;44.782;10.282;2023-12-22T05:46:09;2.58;;;1.05;;
26157;SDS011;67284;44.782;10.282;2023-12-22T05:51:01;4.47;;;1.17;;
26157;SDS011;67284;44.782;10.282;2023-12-22T05:55:58;2.90;;;1.10;;
26157;SDS011;67284;44.782;10.282;2023-12-22T06:00:50;4.13;;;1.40;;
26157;SDS011;67284;44.782;10.282;2023-12-22T06:05:43;2.65;;;1.02;;
26157;SDS011;67284;44.782;10.282;2023-12-22T06:10:35;0.88;;;0.73;;
26157;SDS011;67284;44.782;10.282;2023-12-22T06:15:27;8.70;;;0.90;;
26157;SDS011;67284;44.782;10.282;2023-12-22T06:20:19;4.60;;;1.20;;
26157;SDS011;67284;44.782;10.282;2023-12-22T06:25:11;2.90;;;1.10;;
26157;SDS011;67284;44.782;10.282;2023-12-22T06:30:04;1.27;;;0.90;;
26157;SDS011;67284;44.782;10.282;2023-12-22T06:34:56;1.92;;;0.85;;
26157;SDS011;67284;44.782;10.282;2023-12-22T06:39:51;2.60;;;1.00;;
26157;SDS011;67284;44.782;10.282;2023-12-22T06:44:42;1.38;;;0.80;;
26157;SDS011;67284;44.782;10.282;2023-12-22T06:49:37;0.98;;;0.90;;
26157;SDS011;67284;44.782;10.282;2023-12-22T06:54:30;3.13;;;1.42;;
26157;SDS011;67284;44.782;10.282;2023-12-22T06:59:21;2.50;;;0.95;;
26157;SDS011;67284;44.782;10.282;2023-12-22T07:04:15;1.08;;;0.80;;
26157;SDS011;67284;44.782;10.282;2023-12-22T07:14:02;1.67;;;1.00;;
26157;SDS011;67284;44.782;10.282;2023-12-22T07:18:54;1.35;;;0.98;;
26157;SDS011;67284;44.782;10.282;2023-12-22T07:23:46;5.45;;;1.00;;
26157;SDS011;67284;44.782;10.282;2023-12-22T07:28:38;0.70;;;0.70;;
26157;SDS011;67284;44.782;10.282;2023-12-22T07:33:30;1.35;;;0.68;;
26157;SDS011;67284;44.782;10.282;2023-12-22T07:38:22;3.28;;;0.80;;
26157;SDS011;67284;44.782;10.282;2023-12-22T07:43:15;2.38;;;0.70;;
26157;SDS011;67284;44.782;10.282;2023-12-22T07:48:07;0.60;;;0.60;;
26157;SDS011;67284;44.782;10.282;2023-12-22T07:52:59;5.70;;;1.45;;
26157;SDS011;67284;44.782;10.282;2023-12-22T07:57:57;2.58;;;0.90;;
26157;SDS011;67284;44.782;10.282;2023-12-22T08:02:48;1.73;;;0.90;;
26157;SDS011;67284;44.782;10.282;2023-12-22T08:07:40;1.00;;;0.65;;
26157;SDS011;67284;44.782;10.282;2023-12-22T08:12:32;2.25;;;1.13;;
26157;SDS011;67284;44.782;10.282;2023-12-22T08:17:24;2.33;;;0.88;;
26157;SDS011;67284;44.782;10.282;2023-12-22T08:22:16;4.20;;;0.95;;
26157;SDS011;67284;44.782;10.282;2023-12-22T08:27:09;5.47;;;1.13;;
26157;SDS011;67284;44.782;10.282;2023-12-22T08:32:01;1.73;;;0.60;;
26157;SDS011;67284;44.782;10.282;2023-12-22T08:36:53;1.60;;;0.80;;
26157;SDS011;67284;44.782;10.282;2023-12-22T08:41:46;1.02;;;0.60;;
26157;SDS011;67284;44.782;10.282;2023-12-22T08:46:38;1.05;;;0.80;;
26157;SDS011;67284;44.782;10.282;2023-12-22T08:51:33;0.55;;;0.50;;
26157;SDS011;67284;44.782;10.282;2023-12-22T08:56:28;3.00;;;0.80;;
26157;SDS011;67284;44.782;10.282;2023-12-22T09:01:21;1.77;;;0.70;;
26157;SDS011;67284;44.782;10.282;2023-12-22T09:06:17;4.55;;;0.65;;
26157;SDS011;67284;44.782;10.282;2023-12-22T09:11:13;1.23;;;0.60;;
26157;SDS011;67284;44.782;10.282;2023-12-22T09:16:08;3.25;;;0.50;;
26157;SDS011;67284;44.782;10.282;2023-12-22T09:21:01;0.73;;;0.52;;
26157;SDS011;67284;44.782;10.282;2023-12-22T09:25:54;0.82;;;0.68;;
26157;SDS011;67284;44.782;10.282;2023-12-22T09:30:46;0.65;;;0.50;;
26157;SDS011;67284;44.782;10.282;2023-12-22T09:35:38;5.15;;;1.70;;
26157;SDS011;67284;44.782;10.282;2023-12-22T09:40:33;3.97;;;1.30;;
26157;SDS011;67284;44.782;10.282;2023-12-22T09:45:27;1.70;;;1.10;;
26157;SDS011;67284;44.782;10.282;2023-12-22T09:50:21;1.05;;;0.93;;
26157;SDS011;67284;44.782;10.282;2023-12-22T09:55:14;2.42;;;1.17;;
26157;SDS011;67284;44.782;10.282;2023-12-22T10:00:08;1.25;;;1.15;;
26157;SDS011;67284;44.782;10.282;2023-12-22T10:05:00;2.65;;;0.98;;
26157;SDS011;67284;44.782;10.282;2023-12-22T10:09:52;4.88;;;1.00;;
26157;SDS011;67284;44.782;10.282;2023-12-22T10:14:47;1.35;;;0.70;;
26157;SDS011;67284;44.782;10.282;2023-12-22T10:19:39;4.20;;;3.20;;
26157;SDS011;67284;44.782;10.282;2023-12-22T10:24:41;1.75;;;1.00;;
26157;SDS011;67284;44.782;10.282;2023-12-22T10:29:34;1.63;;;1.08;;
26157;SDS011;67284;44.782;10.282;2023-12-22T10:34:26;2.45;;;1.65;;
26157;SDS011;67284;44.782;10.282;2023-12-22T10:39:18;1.35;;;1.23;;
26157;SDS011;67284;44.782;10.282;2023-12-22T10:44:10;2.97;;;0.82;;
26157;SDS011;67284;44.782;10.282;2023-12-22T10:49:02;2.25;;;1.00;;
26157;SDS011;67284;44.782;10.282;2023-12-22T10:53:56;8.32;;;3.35;;
26157;SDS011;67284;44.782;10.282;2023-12-22T10:58:48;2.65;;;1.45;;
26157;SDS011;67284;44.782;10.282;2023-12-22T11:03:40;2.58;;;1.27;;
26157;SDS011;67284;44.782;10.282;2023-12-22T11:08:35;3.47;;;1.30;;
26157;SDS011;67284;44.782;10.282;2023-12-22T11:13:28;1.45;;;0.80;;
26157;SDS011;67284;44.782;10.282;2023-12-22T11:18:22;2.40;;;0.52;;
26157;SDS011;67284;44.782;10.282;2023-12-22T11:23:14;0.77;;;0.73;;
26157;SDS011;67284;44.782;10.282;2023-12-22T11:28:09;2.83;;;0.98;;
26157;SDS011;67284;44.782;10.282;2023-12-22T11:33:03;6.05;;;0.90;;
26157;SDS011;67284;44.782;10.282;2023-12-22T11:37:56;3.50;;;0.73;;
26157;SDS011;67284;44.782;10.282;2023-12-22T11:42:51;0.55;;;0.55;;
26157;SDS011;67284;44.782;10.282;2023-12-22T11:47:44;1.67;;;0.80;;
26157;SDS011;67284;44.782;10.282;2023-12-22T11:52:37;0.60;;;0.60;;
26157;SDS011;67284;44.782;10.282;2023-12-22T11:57:32;0.40;;;0.40;;
26157;SDS011;67284;44.782;10.282;2023-12-22T12:02:24;1.13;;;0.50;;
26157;SDS011;67284;44.782;10.282;2023-12-22T12:12:36;0.57;;;0.57;;
26157;SDS011;67284;44.782;10.282;2023-12-22T12:17:29;0.82;;;0.63;;
26157;SDS011;67284;44.782;10.282;2023-12-22T12:22:21;1.17;;;0.63;;
26157;SDS011;67284;44.782;10.282;2023-12-22T12:27:19;0.60;;;0.40;;
26157;SDS011;67284;44.782;10.282;2023-12-22T12:32:13;1.13;;;0.50;;
26157;SDS011;67284;44.782;10.282;2023-12-22T12:37:06;0.90;;;0.50;;
26157;SDS011;67284;44.782;10.282;2023-12-22T12:41:59;1.60;;;0.30;;
26157;SDS011;67284;44.782;10.282;2023-12-22T12:46:53;0.43;;;0.35;;
26157;SDS011;67284;44.782;10.282;2023-12-22T12:51:46;2.50;;;0.50;;
26157;SDS011;67284;44.782;10.282;2023-12-22T12:56:39;0.93;;;0.60;;
26157;SDS011;67284;44.782;10.282;2023-12-22T13:01:32;0.65;;;0.40;;
26157;SDS011;67284;44.782;10.282;2023-12-22T13:06:29;1.05;;;0.43;;
26157;SDS011;67284;44.782;10.282;2023-12-22T13:11:21;1.38;;;0.50;;
26157;SDS011;67284;44.782;10.282;2023-12-22T13:16:24;1.95;;;0.43;;
26157;SDS011;67284;44.782;10.282;2023-12-22T13:21:22;0.83;;;0.47;;
26157;SDS011;67284;44.782;10.282;2023-12-22T13:26:19;0.50;;;0.47;;
26157;SDS011;67284;44.782;10.282;2023-12-22T13:31:12;0.55;;;0.32;;
26157;SDS011;67284;44.782;10.282;2023-12-22T13:36:09;2.13;;;1.40;;
26157;SDS011;67284;44.782;10.282;2023-12-22T13:41:02;1.20;;;0.77;;
26157;SDS011;67284;44.782;10.282;2023-12-22T13:45:55;1.92;;;0.80;;
26157;SDS011;67284;44.782;10.282;2023-12-22T13:50:55;0.77;;;0.70;;
26157;SDS011;67284;44.782;10.282;2023-12-22T13:56:00;1.60;;;1.00;;
26157;SDS011;67284;44.782;10.282;2023-12-22T14:00:52;2.45;;;0.85;;
26157;SDS011;67284;44.782;10.282;2023-12-22T14:05:44;0.60;;;0.60;;
26157;SDS011;67284;44.782;10.282;2023-12-22T14:10:36;0.60;;;0.60;;
26157;SDS011;67284;44.782;10.282;2023-12-22T14:15:28;0.50;;;0.40;;
26157;SDS011;67284;44.782;10.282;2023-12-22T14:20:34;3.40;;;0.80;;
26157;SDS011;67284;44.782;10.282;2023-12-22T14:25:26;1.42;;;0.60;;
26157;SDS011;67284;44.782;10.282;2023-12-22T14:30:18;2.22;;;0.40;;
26157;SDS011;67284;44.782;10.282;2023-12-22T14:35:10;0.55;;;0.50;;
26157;SDS011;67284;44.782;10.282;2023-12-22T14:40:02;4.60;;;1.30;;
26157;SDS011;67284;44.782;10.282;2023-12-22T14:44:54;3.28;;;1.58;;
26157;SDS011;67284;44.782;10.282;2023-12-22T14:49:46;5.97;;;2.42;;
26157;SDS011;67284;44.782;10.282;2023-12-22T14:54:38;5.25;;;1.75;;
26157;SDS011;67284;44.782;10.282;2023-12-22T14:59:30;4.30;;;0.60;;
26157;SDS011;67284;44.782;10.282;2023-12-22T15:04:22;1.50;;;0.90;;
26157;SDS011;67284;44.782;10.282;2023-12-22T15:09:14;3.20;;;0.82;;
26157;SDS011;67284;44.782;10.282;2023-12-22T15:14:06;2.40;;;0.63;;
26157;SDS011;67284;44.782;10.282;2023-12-22T15:18:58;1.52;;;0.73;;
26157;SDS011;67284;44.782;10.282;2023-12-22T15:23:50;1.80;;;1.00;;
26157;SDS011;67284;44.782;10.282;2023-12-22T15:28:44;0.95;;;0.60;;
26157;SDS011;67284;44.782;10.282;2023-12-22T15:33:36;0.75;;;0.75;;
26157;SDS011;67284;44.782;10.282;2023-12-22T15:38:28;4.57;;;0.88;;
26157;SDS011;67284;44.782;10.282;2023-12-22T15:43:20;0.98;;;0.70;;
26157;SDS011;67284;44.782;10.282;2023-12-22T15:48:13;1.98;;;1.73;;
26157;SDS011;67284;44.782;10.282;2023-12-22T15:53:06;1.10;;;0.75;;
26157;SDS011;67284;44.782;10.282;2023-12-22T15:57:58;1.27;;;0.82;;
26157;SDS011;67284;44.782;10.282;2023-12-22T16:02:50;0.93;;;0.70;;
26157;SDS011;67284;44.782;10.282;2023-12-22T16:07:42;2.92;;;0.93;;
26157;SDS011;67284;44.782;10.282;2023-12-22T16:12:35;0.80;;;0.80;;
26157;SDS011;67284;44.782;10.282;2023-12-22T16:17:27;0.90;;;0.90;;
26157;SDS011;67284;44.782;10.282;2023-12-22T16:22:19;2.38;;;1.10;;
26157;SDS011;67284;44.782;10.282;2023-12-22T16:27:11;2.45;;;0.73;;
26157;SDS011;67284;44.782;10.282;2023-12-22T16:32:04;1.52;;;1.05;;
26157;SDS011;67284;44.782;10.282;2023-12-22T16:36:57;4.30;;;0.95;;
26157;SDS011;67284;44.782;10.282;2023-12-22T16:41:49;4.38;;;1.45;;
26157;SDS011;67284;44.782;10.282;2023-12-22T16:46:41;3.55;;;1.65;;
26157;SDS011;67284;44.782;10.282;2023-12-22T16:51:35;3.35;;;1.50;;
26157;SDS011;67284;44.782;10.282;2023-12-22T16:56:27;5.43;;;1.67;;
26157;SDS011;67284;44.782;10.282;2023-12-22T17:01:19;2.38;;;1.33;;
26157;SDS011;67284;44.782;10.282;2023-12-22T17:06:29;3.92;;;1.70;;
26157;SDS011;67284;44.782;10.282;2023-12-22T17:11:22;4.82;;;1.60;;
26157;SDS011;67284;44.782;10.282;2023-12-22T17:16:14;6.05;;;2.20;;
26157;SDS011;67284;44.782;10.282;2023-12-22T17:21:06;4.43;;;1.92;;
26157;SDS011;67284;44.782;10.282;2023-12-22T17:26:00;3.63;;;1.48;;
26157;SDS011;67284;44.782;10.282;2023-12-22T17:30:52;4.82;;;1.65;;
26157;SDS011;67284;44.782;10.282;2023-12-22T17:35:43;5.72;;;1.92;;
26157;SDS011;67284;44.782;10.282;2023-12-22T17:40:36;5.80;;;1.73;;
26157;SDS011;67284;44.782;10.282;2023-12-22T17:45:28;5.60;;;1.80;;
26157;SDS011;67284;44.782;10.282;2023-12-22T17:50:20;6.82;;;1.45;;
26157;SDS011;67284;44.782;10.282;2023-12-22T17:55:13;8.60;;;2.25;;
26157;SDS011;67284;44.782;10.282;2023-12-22T18:00:05;4.97;;;1.95;;
26157;SDS011;67284;44.782;10.282;2023-12-22T18:04:58;6.68;;;1.92;;
26157;SDS011;67284;44.782;10.282;2023-12-22T18:09:50;4.43;;;1.83;;
26157;SDS011;67284;44.782;10.282;2023-12-22T18:14:42;3.95;;;1.42;;
26157;SDS011;67284;44.782;10.282;2023-12-22T18:19:33;8.07;;;1.85;;
26157;SDS011;67284;44.782;10.282;2023-12-22T18:24:25;3.47;;;1.30;;
26157;SDS011;67284;44.782;10.282;2023-12-22T18:29:17;5.47;;;1.40;;
26157;SDS011;67284;44.782;10.282;2023-12-22T18:34:09;2.72;;;1.33;;
26157;SDS011;67284;44.782;10.282;2023-12-22T18:39:01;4.68;;;1.58;;
26157;SDS011;67284;44.782;10.282;2023-12-22T18:43:54;7.15;;;1.52;;
26157;SDS011;67284;44.782;10.282;2023-12-22T18:48:46;4.70;;;1.52;;
26157;SDS011;67284;44.782;10.282;2023-12-22T18:53:38;7.40;;;1.50;;
26157;SDS011;67284;44.782;10.282;2023-12-22T18:58:31;5.65;;;1.83;;
26157;SDS011;67284;44.782;10.282;2023-12-22T19:03:23;9.45;;;2.30;;
26157;SDS011;67284;44.782;10.282;2023-12-22T19:08:15;1.90;;;1.20;;
26157;SDS011;67284;44.782;10.282;2023-12-22T19:13:07;8.98;;;1.70;;
26157;SDS011;67284;44.782;10.282;2023-12-22T19:17:59;4.03;;;1.30;;
26157;SDS011;67284;44.782;10.282;2023-12-22T19:22:51;6.72;;;1.48;;
26157;SDS011;67284;44.782;10.282;2023-12-22T19:27:44;5.00;;;1.60;;
26157;SDS011;67284;44.782;10.282;2023-12-22T19:32:37;3.75;;;1.45;;
26157;SDS011;67284;44.782;10.282;2023-12-22T19:37:30;2.83;;;1.45;;
26157;SDS011;67284;44.782;10.282;2023-12-22T19:42:23;5.88;;;2.47;;
26157;SDS011;67284;44.782;10.282;2023-12-22T19:47:15;3.15;;;1.60;;
26157;SDS011;67284;44.782;10.282;2023-12-22T19:52:06;6.53;;;1.80;;
26157;SDS011;67284;44.782;10.282;2023-12-22T19:56:58;6.10;;;1.48;;
26157;SDS011;67284;44.782;10.282;2023-12-22T20:01:50;6.40;;;1.55;;
26157;SDS011;67284;44.782;10.282;2023-12-22T20:06:43;3.17;;;1.30;;
26157;SDS011;67284;44.782;10.282;2023-12-22T20:11:36;6.40;;;1.45;;
26157;SDS011;67284;44.782;10.282;2023-12-22T20:16:28;1.85;;;1.05;;
26157;SDS011;67284;44.782;10.282;2023-12-22T20:21:20;3.80;;;1.58;;
26157;SDS011;67284;44.782;10.282;2023-12-22T20:26:12;6.80;;;1.60;;
26157;SDS011;67284;44.782;10.282;2023-12-22T20:31:04;3.47;;;1.38;;
26157;SDS011;67284;44.782;10.282;2023-12-22T20:35:57;2.75;;;1.15;;
26157;SDS011;67284;44.782;10.282;2023-12-22T20:40:49;4.35;;;1.48;;
26157;SDS011;67284;44.782;10.282;2023-12-22T20:45:41;5.13;;;1.30;;
26157;SDS011;67284;44.782;10.282;2023-12-22T20:50:33;4.28;;;1.30;;
26157;SDS011;67284;44.782;10.282;2023-12-22T20:55:25;3.28;;;1.10;;
26157;SDS011;67284;44.782;10.282;2023-12-22T21:00:17;5.28;;;1.10;;
26157;SDS011;67284;44.782;10.282;2023-12-22T21:05:09;3.50;;;1.10;;
26157;SDS011;67284;44.782;10.282;2023-12-22T21:10:02;3.88;;;1.30;;
26157;SDS011;67284;44.782;10.282;2023-12-22T21:14:54;1.63;;;1.00;;
26157;SDS011;67284;44.782;10.282;2023-12-22T21:19:46;4.25;;;1.38;;
26157;SDS011;67284;44.782;10.282;2023-12-22T21:24:38;2.13;;;1.20;;
26157;SDS011;67284;44.782;10.282;2023-12-22T21:29:30;1.58;;;1.10;;
26157;SDS011;67284;44.782;10.282;2023-12-22T21:34:22;4.55;;;1.40;;
26157;SDS011;67284;44.782;10.282;2023-12-22T21:39:14;1.27;;;0.90;;
26157;SDS011;67284;44.782;10.282;2023-12-22T21:44:06;8.55;;;1.17;;
26157;SDS011;67284;44.782;10.282;2023-12-22T21:48:58;2.42;;;1.10;;
26157;SDS011;67284;44.782;10.282;2023-12-22T21:53:50;7.10;;;1.42;;
26157;SDS011;67284;44.782;10.282;2023-12-22T21:58:42;2.22;;;1.25;;
26157;SDS011;67284;44.782;10.282;2023-12-22T22:03:36;2.00;;;0.82;;
26157;SDS011;67284;44.782;10.282;2023-12-22T22:08:29;6.07;;;1.90;;
26157;SDS011;67284;44.782;10.282;2023-12-22T22:13:20;1.88;;;1.20;;
26157;SDS011;67284;44.782;10.282;2023-12-22T22:18:12;2.92;;;1.20;;
26157;SDS011;67284;44.782;10.282;2023-12-22T22:23:04;3.42;;;1.30;;
26157;SDS011;67284;44.782;10.282;2023-12-22T22:27:56;3.63;;;1.38;;
26157;SDS011;67284;44.782;10.282;2023-12-22T22:32:48;3.28;;;1.42;;
26157;SDS011;67284;44.782;10.282;2023-12-22T22:37:40;4.60;;;1.10;;
26157;SDS011;67284;44.782;10.282;2023-12-22T22:42:32;1.55;;;1.15;;
26157;SDS011;67284;44.782;10.282;2023-12-22T22:47:24;6.78;;;1.00;;
26157;SDS011;67284;44.782;10.282;2023-12-22T22:52:17;3.30;;;1.30;;
26157;SDS011;67284;44.782;10.282;2023-12-22T22:57:09;6.60;;;1.35;;
26157;SDS011;67284;44.782;10.282;2023-12-22T23:02:01;3.13;;;1.45;;
26157;SDS011;67284;44.782;10.282;2023-12-22T23:06:53;3.90;;;1.40;;
26157;SDS011;67284;44.782;10.282;2023-12-22T23:11:45;1.13;;;0.98;;
26157;SDS011;67284;44.782;10.282;2023-12-22T23:16:37;2.60;;;1.10;;
26157;SDS011;67284;44.782;10.282;2023-12-22T23:21:28;5.35;;;1.05;;
26157;SDS011;67284;44.782;10.282;2023-12-22T23:26:20;1.95;;;0.80;;
26157;SDS011;67284;44.782;10.282;2023-12-22T23:31:13;2.50;;;0.98;;
26157;SDS011;67284;44.782;10.282;2023-12-22T23:36:05;6.38;;;1.30;;
26157;SDS011;67284;44.782;10.282;2023-12-22T23:41:12;2.58;;;1.20;;
26157;SDS011;67284;44.782;10.282;2023-12-22T23:46:04;3.30;;;1.30;;
26157;SDS011;67284;44.782;10.282;2023-12-22T23:50:58;2.45;;;0.93;;
26157;SDS011;67284;44.782;10.282;2023-12-22T23:55:51;6.88;;;1.23;;
